FYWW

Windhoek, Town MET Airport

Windhoek, Namibia
METAR FYWW 221800Z AUTO 11007KT //// // ////// 20/04 Q1024
Observed Flight Rules
Apr-22 @ 18:00 UTC (17 minutes ago)
Wind
110° at 7 knots
Temperatures Readings
Current 20°C / 68°F
Dewpoint 4°C / 39°F
Humidity 35%
Altimeter 30.24" Hg
Pressure 1024 hPa
Elevation 1725
METAR FYWW 221800Z AUTO 11007KT //// // ////// 20/04 Q1024
Observed Flight Rules
Apr-22 @ 18:00 UTC
(17 minutes ago)
Wind
110° at 7 knots
Temperature Dewpoint
20°C / 68°F 4°C / 39°F
Humidity Altimeter Pressure
35% 30.24" Hg 1024 hPa